Meteo Giornale » Osservazioni meteo Germania » Monaco-Riem

ore: 07:50 - Osservazioni Meteo Monaco-Riem
Lat. 48° 8' N Lon. 11° 42' E Alt. 529 metri s.l.m.

sereno

16 °C

Sereno

Temp. 24 Ore

12 °C

25 °C

Nord

5.5 Km/h

Dew point 12 °C

Umidità 77 %

Visibilità  10 Km

Il sole sorge alle ore 06:31

Il sole tramonta alle ore 19:55

Data e Ora Cielo e Fenomeni T °C DP °C Um. % Pres. hPa Vis. km Vento km/h
Oggi h: 07:50 sereno Sereno 16 12 77 1022 10 N 5.5
Oggi h: 07:20 sereno Sereno 15 11 76 1022 10 N 3.7
Oggi h: 06:50 sereno Sereno 13 11 87 1022 10 N 3.7
Oggi h: 06:20 sereno Sereno 14 11 82 1022 10 SO 7.4
Oggi h: 05:50 sereno Sereno 12 11 93 1022 10 N 5.5
Oggi h: 05:20 sereno Sereno 15 11 76 1022 10 N 3.7
Oggi h: 04:50 sereno Sereno 14 11 82 1022 10 O/SO 9.3
Oggi h: 04:20 sereno Sereno 15 11 76 1022 10 SO 7.4
Oggi h: 03:50 sereno Sereno 15 11 76 1022 10 SO 9.3
Oggi h: 03:20 sereno Sereno 14 11 82 1022 10 S/SO 11.1
Oggi h: 02:50 sereno Sereno 15 11 76 1022 10 O/SO 11.1
Oggi h: 02:20 sereno Sereno 15 11 76 1022 10 O/SO 13
Oggi h: 01:50 sereno Sereno 14 11 82 1022 10 O/SO 11.1
Oggi h: 01:20 sereno Sereno 14 11 82 1022 10 O 13
Oggi h: 00:50 sereno Sereno 14 11 82 1022 10 O/SO 11.1
Oggi h: 00:20 sereno Sereno 14 11 82 1022 10 O/SO 7.4
Ieri h: 23:50 sereno Sereno 17 11 67 1021 10 N 5.5
Ieri h: 23:20 sereno Sereno 18 11 63 1021 10 O/NO 7.4
Ieri h: 22:50 sereno Sereno 19 11 59 1020 10 NO 9.3
Ieri h: 22:20 sereno Sereno 18 11 63 1020 10 N 5.5
Ieri h: 21:50 sereno Sereno 20 11 56 1020 10 N 5.5
Ieri h: 21:20 sereno Sereno 21 11 52 1019 10 O/NO 11.1
Ieri h: 20:50 sereno Sereno 21 11 52 1019 10 O 9.3
Ieri h: 20:20 sereno Sereno 22 10 46 1018 10 O 9.3
Ieri h: 19:50 sereno Sereno 22 11 49 1018 10 O 9.3
Ieri h: 19:20 sereno Sereno 23 10 43 1017 10 O 9.3
Ieri h: 18:50 sereno Sereno 24 10 41 1017 10 O 13
Ieri h: 18:20 sereno Sereno 24 10 41 1017 10 O 22.2
Ieri h: 17:50 sereno Sereno 24 10 41 1017 10 O 18.5
Ieri h: 17:20 sereno Sereno 25 10 38 1017 10 O 16.7
Ieri h: 16:50 sereno Sereno 25 11 41 1017 10 O 20.3
Ieri h: 16:20 sereno Sereno 25 10 38 1017 10 O 24
Ieri h: 15:50 sereno Sereno 25 11 41 1017 10 O 24
Ieri h: 15:20 sereno Sereno 24 10 41 1017 10 O 24
Ieri h: 14:50 poco_nuvoloso Poco Nuvoloso 25 11 41 1017 10 O 33.3
Ieri h: 14:20 poco_nuvoloso Poco Nuvoloso 24 13 50 1017 10 O 33.3
Ieri h: 13:50 poco_nuvoloso Poco Nuvoloso 24 14 53 1018 10 O 31.5
Ieri h: 13:20 poco_nuvoloso Poco Nuvoloso 24 14 53 1018 10 O 25.9
Ieri h: 12:50 poco_nuvoloso Poco Nuvoloso 23 14 56 1018 10 O 25.9
Ieri h: 12:20 poco_nuvoloso Poco Nuvoloso 23 15 60 1018 10 O 20.3
Ieri h: 11:50 poco_nuvoloso Poco Nuvoloso 22 14 60 1018 10 O 20.3
Ieri h: 11:20 nuvoloso Nuvoloso 22 15 64 1018 10 O 22.2
Ieri h: 10:50 nuvoloso Nuvoloso 21 15 68 1018 10 O/NO 11.1
Ieri h: 10:20 poco_nuvoloso Poco Nuvoloso 20 15 72 1018 10 O 18.5
Ieri h: 09:50 poco_nuvoloso Poco Nuvoloso 21 15 68 1018 10 O/NO 22.2
Ieri h: 09:20 poco_nuvoloso Poco Nuvoloso 20 16 77 1018 10 O 16.7
Ieri h: 08:50 sereno Sereno 20 16 77 1018 10 O 18.5